createdAt,value
2022-11-20T00:14:00.348Z,0
2022-11-20T00:28:56.484Z,0
2022-11-20T00:43:53.415Z,0
2022-11-20T00:58:49.619Z,0
2022-11-20T01:13:46.051Z,0
2022-11-20T01:28:42.382Z,0
2022-11-20T01:43:38.556Z,0
2022-11-20T01:58:35.201Z,0
2022-11-20T02:13:31.344Z,0
2022-11-20T02:28:27.399Z,0
2022-11-20T02:43:23.970Z,0
2022-11-20T02:58:20.328Z,0
2022-11-20T03:13:16.757Z,0
2022-11-20T03:28:13.370Z,0
2022-11-20T03:43:09.563Z,0
2022-11-20T03:58:05.611Z,0
2022-11-20T04:13:02.134Z,0
2022-11-20T04:27:58.426Z,0
2022-11-20T04:42:55.353Z,0
2022-11-20T04:57:50.812Z,0
2022-11-20T05:12:47.105Z,0
2022-11-20T05:27:43.643Z,0
2022-11-20T05:42:40.347Z,0
2022-11-20T05:57:36.549Z,0
2022-11-20T06:12:32.670Z,0
2022-11-20T06:27:29.003Z,0
2022-11-20T06:42:25.179Z,0
2022-11-20T06:57:22.096Z,0.01
2022-11-20T07:12:18.163Z,0.02
2022-11-20T07:27:14.469Z,0.03
2022-11-20T07:42:10.458Z,0.04
2022-11-20T07:57:06.703Z,0.03
2022-11-20T08:12:02.914Z,0.09
2022-11-20T08:26:58.925Z,0.06
2022-11-20T08:41:55.587Z,0.11
2022-11-20T08:56:51.514Z,0.07
2022-11-20T09:11:47.929Z,0.09
2022-11-20T09:26:44.925Z,0.1
2022-11-20T09:41:41.455Z,0.07
2022-11-20T09:56:37.950Z,0.15
2022-11-20T10:11:34.413Z,0.14
2022-11-20T10:26:30.217Z,0.13
2022-11-20T10:41:26.626Z,0.1
2022-11-20T10:56:22.484Z,0.1
2022-11-20T11:11:18.588Z,0.11
2022-11-20T11:26:14.517Z,0.18
2022-11-20T11:41:10.811Z,0.14
2022-11-20T11:56:07.136Z,0.1
2022-11-20T12:11:03.423Z,0.11
2022-11-20T12:25:59.379Z,0.15
2022-11-20T12:40:55.397Z,0.12
2022-11-20T12:55:51.565Z,0.16
2022-11-20T13:10:48.016Z,0.1
2022-11-20T13:25:44.216Z,0.09
2022-11-20T13:40:40.125Z,0.06
2022-11-20T13:55:35.714Z,0.1
2022-11-20T14:10:32.498Z,0.06
2022-11-20T14:25:27.753Z,0.06
2022-11-20T14:40:23.540Z,0.05
2022-11-20T14:55:20.116Z,0.01
2022-11-20T15:10:16.040Z,0.01
2022-11-20T15:25:12.291Z,0.02
2022-11-20T15:40:08.622Z,0
2022-11-20T15:55:09.467Z,0.02
2022-11-20T16:10:00.822Z,0
2022-11-20T16:17:22.145Z,0
2022-11-20T16:32:18.082Z,0
2022-11-20T16:47:13.557Z,0
2022-11-20T17:02:09.896Z,0
2022-11-20T17:17:06.175Z,0
2022-11-20T17:44:40.251Z,0
2022-11-20T17:59:36.254Z,0
2022-11-20T18:14:32.512Z,0
2022-11-20T18:29:28.625Z,0.01
2022-11-20T18:44:25.240Z,0.01
2022-11-20T18:59:21.144Z,0.01
2022-11-20T19:14:17.342Z,0
2022-11-20T19:29:13.548Z,0
2022-11-20T19:44:10.245Z,0
2022-11-20T19:59:05.796Z,0
2022-11-20T20:14:01.421Z,0.01
2022-11-20T20:28:57.802Z,0
2022-11-20T20:43:54.162Z,0
2022-11-20T20:58:50.313Z,0
2022-11-20T21:13:46.470Z,0
2022-11-20T21:28:42.939Z,0
2022-11-20T21:43:39.454Z,0
2022-11-20T21:58:36.101Z,0
2022-11-20T22:13:32.472Z,0
2022-11-20T22:28:28.501Z,0
2022-11-20T22:43:24.439Z,0
2022-11-20T22:58:20.735Z,0
2022-11-20T23:13:17.084Z,0
2022-11-20T23:28:13.288Z,0
2022-11-20T23:43:09.455Z,0
2022-11-20T23:58:05.857Z,0
